Time;durP1;ratioP1;P1;durP2;ratioP2;P2;SDS_P1;SDS_P2;PMS_P1;PMS_P2;Temp;Humidity;BMP_temperature;BMP_pressure;BME280_temperature;BME280_humidity;BME280_pressure;Samples;Min_cycle;Max_cycle;Signal;HPM_P1;HPM_P2
2021/03/13 00:00:14;;;;;;;0.88;0.43;;;;;;;10.15;55.66;99592.44;4403731;32;33865;-76
2021/03/13 00:02:43;;;;;;;0.40;0.15;;;;;;;10.10;55.54;99605.28;4406951;32;33228;-76
2021/03/13 00:05:13;;;;;;;0.32;0.22;;;;;;;10.16;55.08;99599.41;4415949;32;34390;-76
2021/03/13 00:07:41;;;;;;;0.25;0.25;;;;;;;10.22;54.30;99604.16;4416121;32;33803;-76
2021/03/13 00:10:08;;;;;;;2.10;0.73;;;;;;;10.02;54.52;99607.84;4426926;32;33249;-76
2021/03/13 00:12:37;;;;;;;0.20;0.10;;;;;;;9.82;55.33;99605.37;4414646;32;34335;-76
2021/03/13 00:15:05;;;;;;;0.80;0.73;;;;;;;9.97;54.82;99606.56;4419826;32;35367;-76
2021/03/13 00:17:33;;;;;;;2.08;0.55;;;;;;;10.02;54.57;99613.16;4398983;32;35947;-76
2021/03/13 00:20:02;;;;;;;0.77;0.62;;;;;;;10.01;54.42;99607.97;4428507;32;33099;-76
2021/03/13 00:22:29;;;;;;;0.10;0.10;;;;;;;10.09;54.20;99608.12;4420401;32;32460;-76
2021/03/13 00:24:56;;;;;;;1.50;0.55;;;;;;;10.14;54.04;99614.69;4422382;32;35762;-76
2021/03/13 00:27:23;;;;;;;0.53;0.20;;;;;;;10.11;54.04;99617.59;4435578;32;34441;-76
2021/03/13 00:29:59;;;;;;;0.60;0.60;;;;;;;10.04;53.99;99618.34;4422064;32;33050;-76
2021/03/13 00:32:28;;;;;;;0.60;0.60;;;;;;;10.03;53.74;99612.16;4426362;32;34345;-76
2021/03/13 00:34:55;;;;;;;0.55;0.55;;;;;;;9.95;54.55;99608.53;4429471;32;35624;-76
2021/03/13 00:37:23;;;;;;;0.30;0.30;;;;;;;10.06;54.65;99614.56;4416669;32;33819;-76
2021/03/13 00:39:50;;;;;;;1.37;1.27;;;;;;;9.77;57.24;99603.16;4414844;32;33565;-76
2021/03/13 00:42:17;;;;;;;0.35;0.10;;;;;;;9.55;58.34;99607.94;4415201;32;35759;-76
2021/03/13 00:44:45;;;;;;;0.20;0.20;;;;;;;9.80;57.74;99604.66;4418121;32;34734;-76
2021/03/13 00:47:12;;;;;;;0.60;0.60;;;;;;;9.81;57.17;99588.59;4423268;32;34104;-76
2021/03/13 00:49:41;;;;;;;0.52;0.40;;;;;;;9.60;58.02;99603.03;4416340;32;33172;-76
2021/03/13 00:52:08;;;;;;;1.08;0.20;;;;;;;9.62;58.10;99598.44;4440021;32;34369;-76
2021/03/13 00:54:36;;;;;;;0.22;0.20;;;;;;;9.62;58.10;99599.25;4428422;32;34983;-76
2021/03/13 00:57:03;;;;;;;3.67;1.42;;;;;;;9.84;56.96;99592.78;4431616;32;33726;-76
2021/03/13 00:59:31;;;;;;;2.25;0.82;;;;;;;9.61;56.91;99592.28;4414357;32;34106;-76
2021/03/13 01:01:59;;;;;;;;;;;;;;;9.66;55.62;99595.31;4417604;32;32721;-76
2021/03/13 01:04:26;;;;;;;0.52;0.52;;;;;;;9.75;54.85;99588.34;4416915;32;34703;-76
2021/03/13 01:06:54;;;;;;;0.35;0.30;;;;;;;9.50;55.22;99591.59;4419416;32;35423;-76
2021/03/13 01:09:21;;;;;;;0.50;0.50;;;;;;;9.52;54.68;99593.12;4419138;32;33175;-76
2021/03/13 01:11:50;;;;;;;1.48;1.15;;;;;;;9.58;54.00;99587.25;4429492;32;33384;-76
2021/03/13 01:14:18;;;;;;;1.50;0.40;;;;;;;9.17;55.12;99584.91;4420749;32;35771;-76
2021/03/13 01:16:45;;;;;;;14.65;1.27;;;;;;;9.43;54.59;99586.03;4416363;32;33993;-76
2021/03/13 01:19:13;;;;;;;6.47;0.68;;;;;;;9.25;54.86;99582.41;4406299;32;33887;-76
2021/03/13 01:21:44;;;;;;;0.40;0.30;;;;;;;9.12;55.24;99587.19;4419087;32;36490;-76
2021/03/13 01:24:12;;;;;;;1.48;0.35;;;;;;;8.98;56.75;99586.75;4424293;32;35211;-76
2021/03/13 01:26:40;;;;;;;;;;;;;;;8.95;56.54;99592.31;4429140;32;33472;-76
2021/03/13 01:29:08;;;;;;;0.43;0.43;;;;;;;8.80;56.93;99585.78;4427562;32;32888;-75
2021/03/13 01:31:35;;;;;;;0.70;0.60;;;;;;;8.94;56.45;99586.19;4430887;32;34917;-76
2021/03/13 01:34:04;;;;;;;0.88;0.82;;;;;;;8.78;56.71;99580.59;4426680;32;34699;-76
2021/03/13 01:36:32;;;;;;;1.12;0.62;;;;;;;8.61;56.34;99591.88;4429238;32;33749;-76
2021/03/13 01:38:59;;;;;;;2.05;0.85;;;;;;;8.90;56.22;99586.62;4419336;32;33166;-76
2021/03/13 01:41:28;;;;;;;0.88;0.75;;;;;;;8.70;57.23;99588.41;4435972;32;33845;-76
2021/03/13 01:43:55;;;;;;;0.70;0.70;;;;;;;8.55;56.84;99595.09;4420465;32;36327;-76
2021/03/13 01:46:24;;;;;;;0.75;0.75;;;;;;;8.59;56.81;99579.72;4427839;32;34621;-76
2021/03/13 01:48:52;;;;;;;1.15;1.05;;;;;;;8.41;57.57;99591.13;4418205;32;33832;-76
2021/03/13 01:51:20;;;;;;;1.05;1.02;;;;;;;8.17;62.25;99586.16;4427252;32;34549;-76
2021/03/13 01:53:49;;;;;;;0.82;0.82;;;;;;;8.04;62.46;99587.34;4428686;32;35721;-76
2021/03/13 01:56:18;;;;;;;1.42;1.23;;;;;;;8.43;60.46;99577.59;4414369;32;33539;-76
2021/03/13 01:58:46;;;;;;;1.35;0.73;;;;;;;8.34;60.33;99588.19;4433882;32;32325;-76
2021/03/13 02:01:21;;;;;;;0.10;0.10;;;;;;;8.71;58.53;99584.75;4415197;32;33200;-76
2021/03/13 02:03:50;;;;;;;2.70;0.80;;;;;;;8.38;59.34;99586.12;4414278;32;35567;-76
2021/03/13 02:06:18;;;;;;;9.32;0.75;;;;;;;8.79;59.31;99576.97;4393683;32;34175;-76
2021/03/13 02:09:10;;;;;;;0.65;0.65;;;;;;;8.78;59.15;99577.94;4415084;32;33016;-76
2021/03/13 02:11:56;;;;;;;0.47;0.47;;;;;;;8.18;60.65;99577.22;4415445;32;33710;-76
2021/03/13 02:14:44;;;;;;;2.33;0.82;;;;;;;7.88;61.29;99571.09;4414923;32;36500;-76
2021/03/13 02:17:17;;;;;;;0.20;0.20;;;;;;;7.76;60.63;99580.09;4430503;32;34232;-76
2021/03/13 02:19:52;;;;;;;1.30;1.20;;;;;;;8.02;59.97;99574.22;4425936;32;33033;-76
2021/03/13 02:22:23;;;;;;;0.30;0.30;;;;;;;8.04;59.58;99580.25;4429209;32;33551;-76
2021/03/13 02:25:08;;;;;;;0.50;0.50;;;;;;;7.97;59.38;99587.03;4414298;32;34143;-76
2021/03/13 02:27:45;;;;;;;1.40;0.98;;;;;;;7.82;58.80;99587.53;4428870;32;34800;-76
2021/03/13 02:30:21;;;;;;;0.52;0.52;;;;;;;7.78;59.12;99586.09;4425715;32;33622;-76
2021/03/13 02:33:17;;;;;;;1.40;0.95;;;;;;;7.66;59.98;99592.47;4428834;32;33445;-76
2021/03/13 02:35:50;;;;;;;1.35;1.10;;;;;;;7.83;59.13;99597.97;4417708;32;36517;-76
2021/03/13 02:38:40;;;;;;;0.93;0.93;;;;;;;7.80;58.69;99603.53;4415795;32;35302;-76
2021/03/13 02:41:14;;;;;;;6.50;1.12;;;;;;;7.63;58.73;99608.62;4433367;32;33205;-76
2021/03/13 02:43:45;;;;;;;1.98;1.87;;;;;;;7.77;57.73;99616.22;4428731;32;33529;-76
2021/03/13 02:46:14;;;;;;;1.10;1.10;;;;;;;7.60;57.71;99622.94;4414979;32;34450;-76
2021/03/13 02:48:46;;;;;;;0.47;0.47;;;;;;;7.56;57.58;99618.84;4426439;32;34289;-76
2021/03/13 02:51:16;;;;;;;3.30;0.82;;;;;;;7.37;58.16;99612.63;4402315;32;33055;-76
2021/03/13 02:53:46;;;;;;;1.98;0.35;;;;;;;7.37;57.99;99618.72;4414823;32;33985;-76
2021/03/13 02:56:15;;;;;;;1.60;1.50;;;;;;;7.48;57.65;99607.25;4416243;32;36967;-76
2021/03/13 02:58:46;;;;;;;0.10;0.10;;;;;;;6.75;60.46;99611.66;4405439;32;34239;-76
2021/03/13 03:01:15;;;;;;;0.68;0.68;;;;;;;6.80;59.79;99612.16;4427400;32;33947;-76
2021/03/13 03:03:44;;;;;;;0.77;0.77;;;;;;;7.15;59.18;99616.22;4417330;32;34520;-76
2021/03/13 03:06:12;;;;;;;2.75;0.73;;;;;;;7.03;58.90;99626.97;4401959;32;35929;-76
2021/03/13 03:08:41;;;;;;;1.12;0.70;;;;;;;6.92;59.14;99627.00;4413810;32;35144;-76
2021/03/13 03:11:10;;;;;;;0.10;0.10;;;;;;;6.28;61.71;99628.72;4417410;32;32595;-76
2021/03/13 03:13:38;;;;;;;9.15;0.73;;;;;;;6.11;62.53;99631.84;4428184;32;33333;-76
2021/03/13 03:16:06;;;;;;;0.80;0.20;;;;;;;6.24;62.04;99635.19;4415222;32;35090;-76
2021/03/13 03:18:34;;;;;;;0.47;0.47;;;;;;;6.65;60.69;99622.16;4412898;32;34507;-76
2021/03/13 03:21:03;;;;;;;0.82;0.37;;;;;;;6.44;61.73;99633.63;4413962;32;33972;-76
2021/03/13 03:23:31;;;;;;;0.30;0.30;;;;;;;6.52;61.20;99624.09;4414285;32;33154;-76
2021/03/13 03:25:58;;;;;;;0.52;0.52;;;;;;;6.53;60.88;99624.94;4422221;32;34831;-76
2021/03/13 03:28:25;;;;;;;0.60;0.60;;;;;;;6.65;60.46;99630.09;4414749;32;33794;-76
2021/03/13 03:30:54;;;;;;;0.90;0.90;;;;;;;6.50;60.60;99633.09;4420604;32;32847;-76
2021/03/13 03:33:23;;;;;;;1.37;0.43;;;;;;;6.46;60.29;99634.31;4429427;32;33499;-76
2021/03/13 03:35:51;;;;;;;2.08;1.48;;;;;;;6.37;60.70;99635.91;4418784;32;35443;-76
2021/03/13 03:38:19;;;;;;;0.75;0.75;;;;;;;6.33;60.23;99642.37;4413385;32;34248;-76
2021/03/13 03:40:47;;;;;;;;;;;;;;;6.50;59.76;99647.16;4414432;32;32928;-76
2021/03/13 03:43:27;;;;;;;0.70;0.70;;;;;;;6.41;60.57;99637.34;4389242;32;34165;-76
2021/03/13 03:45:57;;;;;;;3.30;0.90;;;;;;;6.02;61.33;99635.19;4413739;32;34699;-76
2021/03/13 03:48:26;;;;;;;3.00;2.00;;;;;;;5.85;62.08;99638.31;4416615;32;33838;-76
2021/03/13 03:50:56;;;;;;;1.30;0.60;;;;;;;6.08;60.67;99639.97;4419071;32;34134;-76
2021/03/13 03:53:37;;;;;;;0.55;0.55;;;;;;;5.94;60.82;99642.87;4406387;32;35032;-76
2021/03/13 03:56:05;;;;;;;0.60;0.60;;;;;;;6.03;61.00;99644.78;4406368;32;34331;-76
2021/03/13 03:58:37;;;;;;;0.52;0.52;;;;;;;5.63;62.28;99651.44;4419482;32;33736;-76
2021/03/13 04:01:06;;;;;;;1.30;1.20;;;;;;;5.99;61.25;99650.44;4421626;32;32751;-76
2021/03/13 04:03:38;;;;;;;0.17;0.17;;;;;;;6.13;60.89;99642.25;4402644;32;35590;-76
2021/03/13 04:06:08;;;;;;;0.73;0.73;;;;;;;6.03;61.06;99636.88;4413667;32;35072;-76
2021/03/13 04:08:37;;;;;;;1.23;0.60;;;;;;;5.63;62.44;99647.94;4413894;32;34664;-76
2021/03/13 04:11:05;;;;;;;0.45;0.45;;;;;;;5.28;64.59;99648.94;4413291;32;33374;-76
2021/03/13 04:13:33;;;;;;;0.88;0.88;;;;;;;5.61;63.18;99652.50;4413697;32;35292;-76
2021/03/13 04:16:01;;;;;;;1.05;1.05;;;;;;;5.69;62.57;99656.22;4404126;32;35022;-76
2021/03/13 04:18:29;;;;;;;1.70;0.45;;;;;;;5.73;62.07;99651.56;4412986;32;34119;-76
2021/03/13 04:20:56;;;;;;;1.83;1.73;;;;;;;5.59;62.09;99652.63;4426180;32;33986;-76
2021/03/13 04:23:24;;;;;;;0.37;0.37;;;;;;;5.59;62.63;99654.44;4388589;32;34879;-76
2021/03/13 04:25:52;;;;;;;;;;;;;;;5.56;62.62;99644.09;4401898;32;35610;-76
2021/03/13 04:28:19;;;;;;;0.32;0.22;;;;;;;5.78;61.57;99637.06;4412805;32;35186;-76
2021/03/13 04:30:51;;;;;;;1.65;1.55;;;;;;;5.74;61.41;99645.31;4429411;32;32764;-76
2021/03/13 04:33:18;;;;;;;0.75;0.32;;;;;;;5.66;61.32;99648.56;4425640;32;35220;-76
2021/03/13 04:35:47;;;;;;;3.03;1.23;;;;;;;5.62;61.38;99651.56;4414813;32;37217;-76
2021/03/13 04:38:16;;;;;;;1.27;1.17;;;;;;;5.60;61.42;99645.56;4416884;32;33395;-76
2021/03/13 04:40:45;;;;;;;0.55;0.55;;;;;;;4.75;63.91;99652.91;4427557;32;34490;-76
2021/03/13 04:43:14;;;;;;;1.40;1.27;;;;;;;5.32;62.00;99656.50;4415264;32;34513;-76
2021/03/13 04:45:43;;;;;;;0.37;0.37;;;;;;;5.42;61.77;99654.00;4421067;32;34806;-76
2021/03/13 04:48:12;;;;;;;0.32;0.32;;;;;;;5.38;61.62;99658.66;4407252;32;34637;-76
2021/03/13 04:50:39;;;;;;;0.60;0.60;;;;;;;4.74;63.21;99661.75;4417469;32;33050;-76
2021/03/13 04:53:07;;;;;;;2.28;0.95;;;;;;;5.13;62.33;99657.97;4429684;32;33300;-76
2021/03/13 04:55:35;;;;;;;0.55;0.55;;;;;;;4.81;63.33;99662.97;4430928;32;34816;-76
2021/03/13 04:58:02;;;;;;;0.93;0.93;;;;;;;5.16;63.03;99655.09;4436919;32;34027;-76
2021/03/13 05:00:30;;;;;;;1.27;1.17;;;;;;;5.06;62.85;99662.03;4416526;32;32500;-76
2021/03/13 05:02:57;;;;;;;0.85;0.85;;;;;;;5.19;62.45;99665.44;4438444;32;33657;-76
2021/03/13 05:05:24;;;;;;;1.85;0.52;;;;;;;4.97;63.09;99660.06;4427278;32;35844;-76
2021/03/13 05:07:52;;;;;;;1.20;1.15;;;;;;;4.86;63.32;99660.00;4430352;32;34083;-76
2021/03/13 05:10:19;;;;;;;0.50;0.47;;;;;;;4.90;63.18;99657.03;4402179;32;34275;-76
2021/03/13 05:12:47;;;;;;;0.73;0.73;;;;;;;5.10;62.85;99656.41;4415346;32;33534;-76
2021/03/13 05:15:15;;;;;;;0.98;0.98;;;;;;;4.81;63.69;99667.44;4415340;32;34150;-76
2021/03/13 05:17:43;;;;;;;;;;;;;;;5.07;63.23;99661.09;4429861;32;34149;-76
2021/03/13 05:20:11;;;;;;;1.67;1.30;;;;;;;4.88;63.80;99666.00;4414136;32;32928;-76
2021/03/13 05:22:39;;;;;;;0.85;0.85;;;;;;;5.07;62.91;99661.91;4415817;32;35368;-75
2021/03/13 05:25:07;;;;;;;0.43;0.43;;;;;;;5.10;62.88;99656.41;4414177;32;35668;-76
2021/03/13 05:27:38;;;;;;;0.05;0.05;;;;;;;5.15;62.33;99656.91;4429156;32;34469;-76
2021/03/13 05:30:08;;;;;;;0.45;0.43;;;;;;;5.21;62.26;99645.06;4432152;32;35246;-75
2021/03/13 05:32:37;;;;;;;0.85;0.75;;;;;;;5.21;62.34;99651.22;4429344;32;33417;-75
2021/03/13 05:35:09;;;;;;;3.33;1.30;;;;;;;5.16;62.14;99655.97;4411473;32;35278;-76
2021/03/13 05:37:37;;;;;;;4.37;2.40;;;;;;;5.25;62.74;99652.66;4414235;32;33265;-75
2021/03/13 05:40:05;;;;;;;;;;;;;;;4.93;63.15;99654.19;4419163;32;33018;-75
2021/03/13 05:42:34;;;;;;;;;;;;;;;5.25;62.93;99647.38;4431646;32;34039;-75
2021/03/13 05:45:03;;;;;;;0.57;0.57;;;;;;;5.26;63.11;99648.22;4404050;32;36082;-75
2021/03/13 05:47:31;;;;;;;0.45;0.45;;;;;;;5.32;65.15;99647.75;4426310;32;33879;-76
2021/03/13 05:50:01;;;;;;;0.90;0.77;;;;;;;4.54;67.06;99666.78;4403108;32;32606;-75
2021/03/13 05:52:34;;;;;;;0.70;0.70;;;;;;;5.07;65.41;99658.47;4430759;32;34397;-75
2021/03/13 05:55:03;;;;;;;2.65;1.27;;;;;;;5.68;63.50;99654.56;4415305;32;37149;-75
2021/03/13 05:57:31;;;;;;;0.80;0.80;;;;;;;5.71;63.98;99656.13;4406518;32;33426;-75
2021/03/13 05:59:58;;;;;;;0.88;0.88;;;;;;;5.51;65.12;99648.88;4426801;32;33617;-75
2021/03/13 06:02:25;;;;;;;2.28;1.58;;;;;;;5.73;65.14;99641.88;4407396;32;35403;-75
2021/03/13 06:04:54;;;;;;;3.00;2.55;;;;;;;5.35;66.46;99647.53;4416125;32;34775;-75
2021/03/13 06:07:23;;;;;;;6.53;2.58;;;;;;;5.58;65.97;99648.28;4415867;32;35026;-75
2021/03/13 06:09:54;;;;;;;1.42;1.27;;;;;;;5.76;65.02;99657.44;4424885;32;32036;-75
2021/03/13 06:12:25;;;;;;;13.95;9.82;;;;;;;5.73;65.68;99655.06;4431927;32;33727;-75
2021/03/13 06:14:53;;;;;;;2.75;2.47;;;;;;;6.01;64.46;99654.66;4419902;32;33753;-75
2021/03/13 06:17:23;;;;;;;4.00;1.35;;;;;;;6.00;64.86;99662.69;4403549;32;34129;-75
2021/03/13 06:19:53;;;;;;;1.55;1.25;;;;;;;6.14;64.36;99665.91;4418483;32;33027;-75
2021/03/13 06:22:41;;;;;;;0.75;0.75;;;;;;;6.25;64.25;99659.81;4416086;32;33260;-75
2021/03/13 06:25:25;;;;;;;1.73;0.68;;;;;;;6.59;63.05;99664.94;4428158;32;34323;-75
2021/03/13 06:28:06;;;;;;;2.20;2.10;;;;;;;6.77;62.57;99666.09;4414580;32;34294;-75
2021/03/13 06:30:39;;;;;;;0.60;0.60;;;;;;;6.95;62.22;99661.12;4426067;32;34032;-75
2021/03/13 06:33:27;;;;;;;1.67;1.08;;;;;;;7.00;62.89;99673.00;4428924;32;33431;-75
2021/03/13 06:36:01;;;;;;;1.33;1.23;;;;;;;7.03;63.27;99670.12;4413316;32;36044;-76
2021/03/13 06:38:32;;;;;;;1.08;0.88;;;;;;;6.90;63.17;99666.78;4433987;32;34188;-76
2021/03/13 06:41:19;;;;;;;0.77;0.68;;;;;;;7.20;62.15;99664.31;4426190;32;32963;-75
2021/03/13 06:43:47;;;;;;;0.77;0.57;;;;;;;7.68;61.62;99664.66;4433920;32;33889;-75
2021/03/13 06:46:18;;;;;;;3.45;1.58;;;;;;;7.63;62.03;99666.84;4419512;32;34754;-76
2021/03/13 06:48:47;;;;;;;1.65;0.82;;;;;;;7.79;61.51;99667.22;4430635;32;34189;-75
2021/03/13 06:51:38;;;;;;;0.70;0.70;;;;;;;8.02;61.04;99669.59;4428345;32;33268;-75
2021/03/13 06:54:18;;;;;;;2.03;1.02;;;;;;;8.22;61.02;99678.53;4412310;32;34886;-75
2021/03/13 06:57:06;;;;;;;0.95;0.95;;;;;;;7.95;62.90;99673.75;4412807;32;35090;-75
2021/03/13 06:59:39;;;;;;;0.70;0.70;;;;;;;8.37;62.20;99685.97;4402203;32;35637;-76
2021/03/13 07:02:11;;;;;;;2.47;1.37;;;;;;;8.55;61.98;99689.69;4430907;32;33079;-76
2021/03/13 07:04:43;;;;;;;2.97;1.77;;;;;;;8.81;61.47;99690.88;4428998;32;34500;-75
2021/03/13 07:07:11;;;;;;;0.77;0.77;;;;;;;8.93;61.26;99687.13;4414297;32;35828;-75
2021/03/13 07:09:56;;;;;;;2.12;1.52;;;;;;;8.98;61.27;99692.88;4398815;32;33942;-76
2021/03/13 07:12:27;;;;;;;2.50;0.75;;;;;;;9.30;60.30;99699.62;4426154;32;33290;-76
2021/03/13 07:14:57;;;;;;;0.32;0.30;;;;;;;9.17;61.45;99701.69;4427426;32;33327;-75
2021/03/13 07:17:25;;;;;;;1.30;1.20;;;;;;;8.51;64.07;99706.84;4431491;32;35798;-76
2021/03/13 07:19:53;;;;;;;1.27;0.57;;;;;;;8.76;63.41;99707.22;4416212;32;33639;-76
2021/03/13 07:22:20;;;;;;;;;;;;;;;9.09;62.14;99706.03;4419815;32;33121;-76
2021/03/13 07:24:50;;;;;;;2.95;1.40;;;;;;;8.95;63.21;99709.06;4425283;32;33891;-76
2021/03/13 07:27:21;;;;;;;0.82;0.82;;;;;;;9.14;62.64;99699.34;4412838;32;36443;-76
2021/03/13 07:29:53;;;;;;;0.52;0.52;;;;;;;9.45;61.77;99698.22;4429865;32;33871;-76
2021/03/13 07:32:24;;;;;;;2.12;1.42;;;;;;;9.61;60.69;99695.00;4428109;32;34621;-76
2021/03/13 07:34:57;;;;;;;0.88;0.88;;;;;;;9.44;61.48;99691.25;4402660;32;34324;-75
2021/03/13 07:37:26;;;;;;;2.17;0.90;;;;;;;9.74;60.45;99692.91;4417558;32;33722;-76
2021/03/13 07:39:57;;;;;;;0.47;0.47;;;;;;;9.87;60.26;99699.62;4401216;32;34857;-76
2021/03/13 07:42:25;;;;;;;0.20;0.20;;;;;;;10.06;60.17;99690.78;4423769;32;33134;-76
2021/03/13 07:44:53;;;;;;;1.10;0.30;;;;;;;10.09;59.24;99688.69;4427416;32;34960;-76
2021/03/13 07:47:24;;;;;;;3.62;3.15;;;;;;;10.12;59.55;99696.34;4418688;32;35064;-76
2021/03/13 07:49:54;;;;;;;0.90;0.90;;;;;;;10.32;58.87;99699.81;4416357;32;34798;-76
2021/03/13 07:52:24;;;;;;;0.75;0.52;;;;;;;10.56;58.17;99687.69;4428173;32;33247;-76
2021/03/13 07:54:53;;;;;;;1.40;1.30;;;;;;;10.19;59.45;99708.09;4413832;32;33705;-76
2021/03/13 07:57:21;;;;;;;2.62;0.52;;;;;;;10.60;58.01;99698.88;4416917;32;36516;-76
2021/03/13 07:59:49;;;;;;;;;;;;;;;10.31;57.82;99706.13;4422600;32;33877;-75
2021/03/13 08:02:29;;;;;;;0.30;0.30;;;;;;;10.23;58.34;99703.34;4427429;32;33494;-75
2021/03/13 08:05:06;;;;;;;0.37;0.35;;;;;;;10.41;58.08;99697.13;4413874;32;34956;-75
2021/03/13 08:07:53;;;;;;;1.17;1.17;;;;;;;10.39;57.97;99707.06;4424834;32;34539;-76
2021/03/13 08:10:43;;;;;;;0.77;0.47;;;;;;;10.17;58.51;99703.91;4410257;32;33932;-75
2021/03/13 08:13:37;;;;;;;0.73;0.70;;;;;;;9.98;58.70;99698.59;4430794;32;33012;-75
2021/03/13 08:16:12;;;;;;;0.68;0.68;;;;;;;10.17;57.94;99688.81;4424644;32;34132;-75
2021/03/13 08:18:43;;;;;;;1.30;1.05;;;;;;;9.97;58.74;99694.25;4414311;32;34774;-75
2021/03/13 08:21:17;;;;;;;0.30;0.30;;;;;;;10.24;58.19;99695.22;4414615;32;35530;-75
2021/03/13 08:23:49;;;;;;;1.25;0.50;;;;;;;9.93;58.29;99692.88;4428352;32;33743;-75
2021/03/13 08:26:20;;;;;;;0.28;0.28;;;;;;;10.01;57.81;99677.06;4417682;32;33223;-76
2021/03/13 08:28:47;;;;;;;0.85;0.65;;;;;;;10.36;58.01;99683.44;4429072;32;34470;-75
2021/03/13 08:31:24;;;;;;;0.28;0.20;;;;;;;10.51;57.13;99691.75;4427962;32;34007;-75
2021/03/13 08:34:04;;;;;;;1.05;0.95;;;;;;;10.91;55.02;99687.78;4417682;32;32778;-76
2021/03/13 08:36:50;;;;;;;0.25;0.25;;;;;;;10.69;56.20;99690.84;4431926;32;33672;-75
2021/03/13 08:39:25;;;;;;;0.95;0.95;;;;;;;10.67;56.00;99686.66;4414905;32;34773;-76
2021/03/13 08:42:03;;;;;;;0.45;0.40;;;;;;;10.75;56.23;99676.13;4415194;32;35019;-76
2021/03/13 08:44:37;;;;;;;1.92;0.68;;;;;;;11.16;55.21;99662.25;4428303;32;34744;-76
2021/03/13 08:47:09;;;;;;;0.52;0.40;;;;;;;11.14;56.25;99665.06;4414327;32;34547;-75
2021/03/13 08:49:43;;;;;;;0.40;0.40;;;;;;;11.30;54.93;99670.56;4413500;32;36404;-75
2021/03/13 08:52:15;;;;;;;0.77;0.77;;;;;;;11.37;55.18;99659.13;4429193;32;33780;-75
2021/03/13 08:54:54;;;;;;;5.28;0.88;;;;;;;11.36;52.57;99661.97;4431058;32;33954;-75
2021/03/13 08:57:24;;;;;;;0.00;0.00;;;;;;;11.39;52.92;99651.00;4435600;32;32721;-75
2021/03/13 09:00:00;;;;;;;0.15;0.10;;;;;;;11.24;52.61;99657.84;4431484;32;34761;-76
2021/03/13 09:02:54;;;;;;;0.45;0.32;;;;;;;11.32;52.17;99651.78;4416705;32;33708;-76
2021/03/13 09:05:23;;;;;;;0.30;0.30;;;;;;;11.46;53.04;99658.22;4406021;32;34722;-75
2021/03/13 09:07:53;;;;;;;0.37;0.37;;;;;;;11.43;53.45;99649.69;4421060;32;35140;-75
2021/03/13 09:10:21;;;;;;;0.37;0.30;;;;;;;11.33;53.84;99655.12;4436577;32;34863;-75
2021/03/13 09:12:52;;;;;;;0.52;0.52;;;;;;;11.48;53.22;99644.75;4435501;32;34265;-77
2021/03/13 09:15:22;;;;;;;1.17;0.65;;;;;;;11.32;54.12;99655.25;4432219;32;32934;-77
2021/03/13 09:17:52;;;;;;;0.25;0.25;;;;;;;11.50;53.70;99648.09;4417344;32;32434;-76
2021/03/13 09:20:20;;;;;;;0.28;0.28;;;;;;;11.93;52.32;99651.63;4414337;32;34450;-76
2021/03/13 09:22:50;;;;;;;1.35;0.35;;;;;;;11.89;51.74;99647.62;4429358;32;34473;-76
2021/03/13 09:25:20;;;;;;;0.45;0.45;;;;;;;11.70;51.66;99642.47;4403237;32;33138;-76
2021/03/13 09:27:54;;;;;;;0.43;0.43;;;;;;;12.02;50.29;99647.22;4431107;32;34065;-76
2021/03/13 09:30:28;;;;;;;0.05;0.05;;;;;;;12.15;49.86;99636.94;4421334;32;34324;-76
2021/03/13 09:32:58;;;;;;;1.55;0.75;;;;;;;12.27;49.94;99630.38;4429689;32;35076;-76
2021/03/13 09:35:34;;;;;;;0.30;0.30;;;;;;;12.61;49.51;99641.84;4430901;32;33805;-77
2021/03/13 09:38:09;;;;;;;0.90;0.10;;;;;;;12.51;48.06;99638.47;4429023;32;33900;-77
2021/03/13 09:40:40;;;;;;;1.85;0.77;;;;;;;12.54;47.47;99627.47;4404927;32;34194;-77
2021/03/13 09:43:07;;;;;;;0.75;0.40;;;;;;;12.45;47.27;99626.59;4432041;32;34163;-77
2021/03/13 09:45:35;;;;;;;0.62;0.37;;;;;;;12.73;47.15;99624.53;4430320;32;33123;-76
2021/03/13 09:48:07;;;;;;;0.57;0.20;;;;;;;12.41;47.17;99621.75;4415680;32;35383;-77
2021/03/13 09:50:40;;;;;;;0.80;0.15;;;;;;;12.64;46.90;99633.50;4431164;32;34861;-77
2021/03/13 09:53:10;;;;;;;0.10;0.10;;;;;;;12.89;46.76;99617.44;4418702;32;34530;-77
2021/03/13 09:55:38;;;;;;;0.10;0.10;;;;;;;12.96;45.62;99615.78;4416175;32;33405;-76
2021/03/13 09:58:10;;;;;;;0.57;0.50;;;;;;;12.59;45.62;99614.50;4418121;32;35608;-76
2021/03/13 10:00:40;;;;;;;1.37;0.95;;;;;;;12.63;45.78;99610.50;4392912;32;35458;-76
2021/03/13 10:03:12;;;;;;;0.62;0.40;;;;;;;12.83;45.05;99619.94;4414118;32;34337;-77
2021/03/13 10:05:55;;;;;;;0.50;0.15;;;;;;;13.03;45.22;99603.47;4402810;32;32775;-75
2021/03/13 10:08:38;;;;;;;0.43;0.40;;;;;;;13.02;44.93;99609.81;4415072;32;34609;-76
2021/03/13 10:11:10;;;;;;;6.12;0.47;;;;;;;13.38;44.19;99605.84;4429161;32;34987;-77
2021/03/13 10:13:44;;;;;;;0.40;0.32;;;;;;;13.37;43.96;99604.19;4403250;32;34153;-77
2021/03/13 10:16:15;;;;;;;0.47;0.45;;;;;;;13.31;43.18;99601.34;4410560;32;33180;-76
2021/03/13 10:18:44;;;;;;;0.60;0.60;;;;;;;13.53;43.52;99598.84;4411997;32;33501;-77
2021/03/13 10:21:11;;;;;;;;;;;;;;;13.22;45.87;99595.13;4432417;32;34833;-76
2021/03/13 10:23:38;;;;;;;1.10;1.00;;;;;;;13.39;44.37;99604.03;4418773;32;34307;-77
2021/03/13 10:26:08;;;;;;;1.77;0.60;;;;;;;13.53;44.59;99590.81;4420406;32;32981;-77
2021/03/13 10:28:37;;;;;;;1.50;0.30;;;;;;;13.52;44.43;99588.31;4414539;32;33787;-77
2021/03/13 10:31:13;;;;;;;0.70;0.55;;;;;;;13.90;45.21;99591.13;4414691;32;35454;-76
2021/03/13 10:33:46;;;;;;;0.68;0.68;;;;;;;13.70;45.04;99595.13;4415048;32;34986;-77
2021/03/13 10:36:18;;;;;;;0.10;0.10;;;;;;;13.76;45.07;99594.47;4408687;32;32957;-76
2021/03/13 10:38:51;;;;;;;0.73;0.73;;;;;;;13.43;45.50;99590.16;4429506;32;33687;-77
2021/03/13 10:41:23;;;;;;;0.85;0.55;;;;;;;13.61;44.31;99584.63;4425975;32;34834;-77
2021/03/13 10:43:53;;;;;;;0.65;0.30;;;;;;;14.00;44.67;99580.22;4431887;32;33482;-77
2021/03/13 10:46:21;;;;;;;0.22;0.22;;;;;;;14.34;45.11;99578.16;4405960;32;33159;-77
2021/03/13 10:48:57;;;;;;;0.50;0.50;;;;;;;14.51;44.01;99575.22;4413743;32;33113;-76
2021/03/13 10:51:26;;;;;;;2.22;0.50;;;;;;;15.05;42.94;99579.59;4428166;32;34789;-76
2021/03/13 10:53:54;;;;;;;0.30;0.30;;;;;;;14.75;42.10;99572.44;4414264;32;34126;-77
2021/03/13 10:56:22;;;;;;;0.45;0.40;;;;;;;14.40;44.19;99564.91;4423104;32;33681;-74
2021/03/13 10:58:50;;;;;;;1.20;0.65;;;;;;;14.94;41.40;99569.28;4429396;32;34704;-75
2021/03/13 11:01:19;;;;;;;0.20;0.20;;;;;;;15.20;38.86;99561.75;4412409;32;37249;-75
2021/03/13 11:03:48;;;;;;;0.30;0.10;;;;;;;15.22;38.64;99554.34;4402352;32;34260;-75
2021/03/13 11:06:35;;;;;;;0.25;0.25;;;;;;;15.19;38.26;99560.91;4415304;32;33823;-74
2021/03/13 11:09:09;;;;;;;0.22;0.22;;;;;;;14.97;39.14;99560.91;4429831;32;33116;-75
2021/03/13 11:11:39;;;;;;;0.80;0.65;;;;;;;15.02;37.99;99561.22;4424795;32;34605;-74
2021/03/13 11:14:07;;;;;;;0.15;0.10;;;;;;;15.21;37.09;99550.00;4428504;32;35007;-75
2021/03/13 11:16:35;;;;;;;0.20;0.20;;;;;;;14.93;38.47;99549.69;4414185;32;32707;-75
2021/03/13 11:19:04;;;;;;;1.30;0.40;;;;;;;15.10;38.18;99567.34;4409010;32;34357;-75
2021/03/13 11:21:32;;;;;;;;;;;;;;;15.18;38.49;99547.66;4419850;32;34470;-75
2021/03/13 11:23:59;;;;;;;0.32;0.32;;;;;;;15.20;39.48;99534.94;4433625;32;33801;-75
2021/03/13 11:26:27;;;;;;;0.60;0.20;;;;;;;15.22;39.15;99544.47;4414192;32;33458;-75
2021/03/13 11:28:54;;;;;;;0.30;0.10;;;;;;;15.21;39.29;99528.56;4421632;32;34750;-75
2021/03/13 11:31:21;;;;;;;0.20;0.20;;;;;;;15.46;39.45;99541.63;4414957;32;35177;-74
2021/03/13 11:33:49;;;;;;;0.30;0.22;;;;;;;14.82;39.96;99519.81;4431631;32;33590;-73
2021/03/13 11:36:17;;;;;;;0.70;0.40;;;;;;;15.20;39.77;99529.59;4415222;32;34139;-74
2021/03/13 11:38:45;;;;;;;0.13;0.13;;;;;;;15.31;40.04;99519.28;4414619;32;33481;-74
2021/03/13 11:41:13;;;;;;;2.28;0.40;;;;;;;15.41;38.63;99501.09;4415841;32;34740;-74
2021/03/13 11:43:42;;;;;;;;;;;;;;;15.82;35.62;99482.75;4423273;32;34308;-73
2021/03/13 11:46:11;;;;;;;0.43;0.43;;;;;;;16.09;36.47;99496.34;4429673;32;33517;-73
2021/03/13 11:48:41;;;;;;;0.62;0.52;;;;;;;16.31;35.67;99487.34;4433093;32;34522;-74
2021/03/13 11:51:12;;;;;;;0.57;0.57;;;;;;;16.12;35.45;99500.50;4433379;32;34809;-74
2021/03/13 11:53:40;;;;;;;0.08;0.00;;;;;;;16.13;33.93;99476.16;4420896;32;33850;-73
2021/03/13 11:56:08;;;;;;;0.10;0.10;;;;;;;16.08;33.74;99481.28;4416945;32;34010;-74
2021/03/13 11:58:35;;;;;;;;;;;;;;;15.84;34.95;99483.37;4412498;32;33629;-73